sensor_id;sensor_type;location;lat;lon;timestamp;P1;durP1;ratioP1;P2;durP2;ratioP2
48871;SDS011;36154;51.674;7.824;2023-02-28T00:01:26;0.10;;;0.10;;
48871;SDS011;36154;51.674;7.824;2023-02-28T00:03:51;0.10;;;0.10;;
48871;SDS011;36154;51.674;7.824;2023-02-28T00:06:16;0.10;;;0.10;;
48871;SDS011;36154;51.674;7.824;2023-02-28T00:08:41;0.10;;;0.10;;
48871;SDS011;36154;51.674;7.824;2023-02-28T00:11:10;0.10;;;0.10;;
48871;SDS011;36154;51.674;7.824;2023-02-28T00:13:39;0.20;;;0.20;;
48871;SDS011;36154;51.674;7.824;2023-02-28T00:16:07;0.13;;;0.10;;
48871;SDS011;36154;51.674;7.824;2023-02-28T00:18:38;0.10;;;0.10;;
48871;SDS011;36154;51.674;7.824;2023-02-28T00:21:03;0.20;;;0.20;;
48871;SDS011;36154;51.674;7.824;2023-02-28T00:23:30;0.10;;;0.10;;
48871;SDS011;36154;51.674;7.824;2023-02-28T00:25:55;0.05;;;0.05;;
48871;SDS011;36154;51.674;7.824;2023-02-28T00:28:20;0.10;;;0.10;;
48871;SDS011;36154;51.674;7.824;2023-02-28T00:30:46;0.15;;;0.15;;
48871;SDS011;36154;51.674;7.824;2023-02-28T00:33:12;0.20;;;0.20;;
48871;SDS011;36154;51.674;7.824;2023-02-28T00:35:37;0.10;;;0.10;;
48871;SDS011;36154;51.674;7.824;2023-02-28T00:38:02;0.10;;;0.10;;
48871;SDS011;36154;51.674;7.824;2023-02-28T00:40:28;0.10;;;0.10;;
48871;SDS011;36154;51.674;7.824;2023-02-28T00:42:53;0.10;;;0.10;;
48871;SDS011;36154;51.674;7.824;2023-02-28T00:45:18;0.10;;;0.10;;
48871;SDS011;36154;51.674;7.824;2023-02-28T00:47:44;0.10;;;0.10;;
48871;SDS011;36154;51.674;7.824;2023-02-28T00:50:11;0.00;;;0.00;;
48871;SDS011;36154;51.674;7.824;2023-02-28T00:52:39;0.10;;;0.10;;
48871;SDS011;36154;51.674;7.824;2023-02-28T00:55:04;0.10;;;0.10;;
48871;SDS011;36154;51.674;7.824;2023-02-28T00:57:29;0.00;;;0.00;;
48871;SDS011;36154;51.674;7.824;2023-02-28T00:59:55;0.10;;;0.10;;
48871;SDS011;36154;51.674;7.824;2023-02-28T01:02:21;0.10;;;0.10;;
48871;SDS011;36154;51.674;7.824;2023-02-28T01:04:47;0.10;;;0.10;;
48871;SDS011;36154;51.674;7.824;2023-02-28T01:07:12;0.00;;;0.00;;
48871;SDS011;36154;51.674;7.824;2023-02-28T01:09:39;0.10;;;0.10;;
48871;SDS011;36154;51.674;7.824;2023-02-28T01:12:04;0.10;;;0.10;;
48871;SDS011;36154;51.674;7.824;2023-02-28T01:14:31;0.10;;;0.10;;
48871;SDS011;36154;51.674;7.824;2023-02-28T01:16:56;0.00;;;0.00;;
48871;SDS011;36154;51.674;7.824;2023-02-28T01:19:21;0.30;;;0.10;;
48871;SDS011;36154;51.674;7.824;2023-02-28T01:21:46;0.10;;;0.10;;
48871;SDS011;36154;51.674;7.824;2023-02-28T01:24:12;0.10;;;0.10;;
48871;SDS011;36154;51.674;7.824;2023-02-28T01:26:37;0.10;;;0.10;;
48871;SDS011;36154;51.674;7.824;2023-02-28T01:29:02;0.00;;;0.00;;
48871;SDS011;36154;51.674;7.824;2023-02-28T01:31:28;0.10;;;0.10;;
48871;SDS011;36154;51.674;7.824;2023-02-28T01:33:53;0.10;;;0.10;;
48871;SDS011;36154;51.674;7.824;2023-02-28T01:36:19;0.10;;;0.10;;
48871;SDS011;36154;51.674;7.824;2023-02-28T01:38:46;0.43;;;0.10;;
48871;SDS011;36154;51.674;7.824;2023-02-28T01:41:14;0.10;;;0.10;;
48871;SDS011;36154;51.674;7.824;2023-02-28T01:46:10;0.10;;;0.10;;
48871;SDS011;36154;51.674;7.824;2023-02-28T01:48:38;0.55;;;0.10;;
48871;SDS011;36154;51.674;7.824;2023-02-28T01:51:11;0.03;;;0.03;;
48871;SDS011;36154;51.674;7.824;2023-02-28T01:53:44;0.10;;;0.10;;
48871;SDS011;36154;51.674;7.824;2023-02-28T01:56:12;0.10;;;0.10;;
48871;SDS011;36154;51.674;7.824;2023-02-28T01:58:45;0.10;;;0.10;;
48871;SDS011;36154;51.674;7.824;2023-02-28T02:01:12;0.10;;;0.10;;
48871;SDS011;36154;51.674;7.824;2023-02-28T02:03:59;0.00;;;0.00;;
48871;SDS011;36154;51.674;7.824;2023-02-28T02:06:33;0.05;;;0.05;;
48871;SDS011;36154;51.674;7.824;2023-02-28T02:09:00;0.10;;;0.10;;
48871;SDS011;36154;51.674;7.824;2023-02-28T02:11:26;0.00;;;0.00;;
48871;SDS011;36154;51.674;7.824;2023-02-28T02:13:58;0.52;;;0.30;;
48871;SDS011;36154;51.674;7.824;2023-02-28T02:19:51;0.10;;;0.10;;
48871;SDS011;36154;51.674;7.824;2023-02-28T02:40:35;0.10;;;0.10;;
48871;SDS011;36154;51.674;7.824;2023-02-28T02:43:18;0.10;;;0.10;;
48871;SDS011;36154;51.674;7.824;2023-02-28T02:45:49;0.00;;;0.00;;
48871;SDS011;36154;51.674;7.824;2023-02-28T02:48:20;0.00;;;0.00;;
48871;SDS011;36154;51.674;7.824;2023-02-28T02:50:52;0.00;;;0.00;;
48871;SDS011;36154;51.674;7.824;2023-02-28T02:53:21;0.17;;;0.17;;
48871;SDS011;36154;51.674;7.824;2023-02-28T02:55:52;0.10;;;0.10;;
48871;SDS011;36154;51.674;7.824;2023-02-28T02:58:20;0.08;;;0.08;;
48871;SDS011;36154;51.674;7.824;2023-02-28T03:00:50;0.10;;;0.10;;
48871;SDS011;36154;51.674;7.824;2023-02-28T03:03:18;0.00;;;0.00;;
48871;SDS011;36154;51.674;7.824;2023-02-28T03:05:54;0.03;;;0.03;;
48871;SDS011;36154;51.674;7.824;2023-02-28T03:08:21;0.00;;;0.00;;
48871;SDS011;36154;51.674;7.824;2023-02-28T03:10:51;0.00;;;0.00;;
48871;SDS011;36154;51.674;7.824;2023-02-28T03:16:28;0.10;;;0.10;;
48871;SDS011;36154;51.674;7.824;2023-02-28T03:21:39;0.00;;;0.00;;
48871;SDS011;36154;51.674;7.824;2023-02-28T03:24:13;0.00;;;0.00;;
48871;SDS011;36154;51.674;7.824;2023-02-28T03:26:52;0.10;;;0.10;;
48871;SDS011;36154;51.674;7.824;2023-02-28T03:29:31;0.00;;;0.00;;
48871;SDS011;36154;51.674;7.824;2023-02-28T03:32:10;0.10;;;0.10;;
48871;SDS011;36154;51.674;7.824;2023-02-28T03:34:46;0.10;;;0.10;;
48871;SDS011;36154;51.674;7.824;2023-02-28T03:37:20;0.10;;;0.10;;
48871;SDS011;36154;51.674;7.824;2023-02-28T03:39:50;0.00;;;0.00;;
48871;SDS011;36154;51.674;7.824;2023-02-28T03:42:24;0.00;;;0.00;;
48871;SDS011;36154;51.674;7.824;2023-02-28T03:45:04;0.05;;;0.05;;
48871;SDS011;36154;51.674;7.824;2023-02-28T03:47:38;0.10;;;0.10;;
48871;SDS011;36154;51.674;7.824;2023-02-28T03:50:10;0.00;;;0.00;;
48871;SDS011;36154;51.674;7.824;2023-02-28T03:52:46;0.10;;;0.10;;
48871;SDS011;36154;51.674;7.824;2023-02-28T03:55:15;0.10;;;0.10;;
48871;SDS011;36154;51.674;7.824;2023-02-28T04:00:45;0.10;;;0.10;;
48871;SDS011;36154;51.674;7.824;2023-02-28T04:03:14;0.00;;;0.00;;
48871;SDS011;36154;51.674;7.824;2023-02-28T04:06:14;0.00;;;0.00;;
48871;SDS011;36154;51.674;7.824;2023-02-28T04:08:37;0.10;;;0.10;;
48871;SDS011;36154;51.674;7.824;2023-02-28T04:11:06;0.00;;;0.00;;
48871;SDS011;36154;51.674;7.824;2023-02-28T04:13:43;0.10;;;0.10;;
48871;SDS011;36154;51.674;7.824;2023-02-28T04:16:08;0.10;;;0.10;;
48871;SDS011;36154;51.674;7.824;2023-02-28T04:18:43;0.10;;;0.10;;
48871;SDS011;36154;51.674;7.824;2023-02-28T04:21:09;0.00;;;0.00;;
48871;SDS011;36154;51.674;7.824;2023-02-28T04:23:35;0.13;;;0.10;;
48871;SDS011;36154;51.674;7.824;2023-02-28T04:26:01;0.10;;;0.10;;
48871;SDS011;36154;51.674;7.824;2023-02-28T04:28:26;0.10;;;0.10;;
48871;SDS011;36154;51.674;7.824;2023-02-28T04:30:55;0.10;;;0.10;;
48871;SDS011;36154;51.674;7.824;2023-02-28T04:33:25;0.10;;;0.10;;
48871;SDS011;36154;51.674;7.824;2023-02-28T04:35:59;0.03;;;0.03;;
48871;SDS011;36154;51.674;7.824;2023-02-28T04:38:25;0.00;;;0.00;;
48871;SDS011;36154;51.674;7.824;2023-02-28T04:40:50;0.05;;;0.05;;
48871;SDS011;36154;51.674;7.824;2023-02-28T04:43:15;0.10;;;0.10;;
48871;SDS011;36154;51.674;7.824;2023-02-28T04:45:41;0.05;;;0.05;;
48871;SDS011;36154;51.674;7.824;2023-02-28T04:48:06;0.00;;;0.00;;
48871;SDS011;36154;51.674;7.824;2023-02-28T04:50:31;0.15;;;0.10;;
48871;SDS011;36154;51.674;7.824;2023-02-28T04:52:56;0.10;;;0.10;;
48871;SDS011;36154;51.674;7.824;2023-02-28T04:55:22;0.10;;;0.10;;
48871;SDS011;36154;51.674;7.824;2023-02-28T04:57:47;0.10;;;0.10;;
48871;SDS011;36154;51.674;7.824;2023-02-28T05:00:13;0.10;;;0.10;;
48871;SDS011;36154;51.674;7.824;2023-02-28T05:02:41;0.10;;;0.10;;
48871;SDS011;36154;51.674;7.824;2023-02-28T05:05:07;0.00;;;0.00;;
48871;SDS011;36154;51.674;7.824;2023-02-28T05:07:32;0.10;;;0.10;;
48871;SDS011;36154;51.674;7.824;2023-02-28T05:09:57;0.10;;;0.10;;
48871;SDS011;36154;51.674;7.824;2023-02-28T05:12:23;0.10;;;0.10;;
48871;SDS011;36154;51.674;7.824;2023-02-28T05:14:50;0.10;;;0.10;;
48871;SDS011;36154;51.674;7.824;2023-02-28T05:17:16;0.10;;;0.10;;
48871;SDS011;36154;51.674;7.824;2023-02-28T05:19:41;0.10;;;0.10;;
48871;SDS011;36154;51.674;7.824;2023-02-28T05:22:11;0.08;;;0.08;;
48871;SDS011;36154;51.674;7.824;2023-02-28T05:24:39;0.10;;;0.10;;
48871;SDS011;36154;51.674;7.824;2023-02-28T05:27:05;0.10;;;0.10;;
48871;SDS011;36154;51.674;7.824;2023-02-28T05:29:30;0.20;;;0.20;;
48871;SDS011;36154;51.674;7.824;2023-02-28T05:31:55;0.20;;;0.20;;
48871;SDS011;36154;51.674;7.824;2023-02-28T05:34:20;0.38;;;0.17;;
48871;SDS011;36154;51.674;7.824;2023-02-28T05:36:46;0.10;;;0.10;;
48871;SDS011;36154;51.674;7.824;2023-02-28T05:39:11;1.23;;;0.20;;
48871;SDS011;36154;51.674;7.824;2023-02-28T05:41:38;0.40;;;0.20;;
48871;SDS011;36154;51.674;7.824;2023-02-28T05:44:04;0.20;;;0.15;;
48871;SDS011;36154;51.674;7.824;2023-02-28T05:46:29;0.82;;;0.20;;
48871;SDS011;36154;51.674;7.824;2023-02-28T05:48:55;1.05;;;0.20;;
48871;SDS011;36154;51.674;7.824;2023-02-28T05:51:22;1.60;;;0.10;;
48871;SDS011;36154;51.674;7.824;2023-02-28T05:53:47;1.67;;;0.20;;
48871;SDS011;36154;51.674;7.824;2023-02-28T05:56:14;2.60;;;0.30;;
48871;SDS011;36154;51.674;7.824;2023-02-28T05:58:39;0.35;;;0.30;;
48871;SDS011;36154;51.674;7.824;2023-02-28T06:01:21;0.10;;;0.10;;
48871;SDS011;36154;51.674;7.824;2023-02-28T06:03:56;0.35;;;0.20;;
48871;SDS011;36154;51.674;7.824;2023-02-28T06:06:21;0.20;;;0.20;;
48871;SDS011;36154;51.674;7.824;2023-02-28T06:08:47;0.85;;;0.20;;
48871;SDS011;36154;51.674;7.824;2023-02-28T06:11:12;0.75;;;0.20;;
48871;SDS011;36154;51.674;7.824;2023-02-28T06:13:38;0.20;;;0.10;;
48871;SDS011;36154;51.674;7.824;2023-02-28T06:16:03;0.20;;;0.20;;
48871;SDS011;36154;51.674;7.824;2023-02-28T06:18:28;0.55;;;0.20;;
48871;SDS011;36154;51.674;7.824;2023-02-28T06:20:54;1.05;;;0.10;;
48871;SDS011;36154;51.674;7.824;2023-02-28T06:23:20;0.17;;;0.10;;
48871;SDS011;36154;51.674;7.824;2023-02-28T06:25:46;1.35;;;0.20;;
48871;SDS011;36154;51.674;7.824;2023-02-28T06:28:12;0.10;;;0.10;;
48871;SDS011;36154;51.674;7.824;2023-02-28T06:30:38;0.77;;;0.20;;
48871;SDS011;36154;51.674;7.824;2023-02-28T06:33:04;0.10;;;0.10;;
48871;SDS011;36154;51.674;7.824;2023-02-28T06:35:29;0.20;;;0.20;;
48871;SDS011;36154;51.674;7.824;2023-02-28T06:37:54;1.05;;;0.20;;
48871;SDS011;36154;51.674;7.824;2023-02-28T06:40:20;1.27;;;0.20;;
48871;SDS011;36154;51.674;7.824;2023-02-28T06:42:45;1.75;;;0.20;;
48871;SDS011;36154;51.674;7.824;2023-02-28T06:45:11;2.72;;;0.10;;
48871;SDS011;36154;51.674;7.824;2023-02-28T06:47:37;0.35;;;0.20;;
48871;SDS011;36154;51.674;7.824;2023-02-28T06:50:04;0.38;;;0.20;;
48871;SDS011;36154;51.674;7.824;2023-02-28T06:52:30;0.20;;;0.20;;
48871;SDS011;36154;51.674;7.824;2023-02-28T06:54:56;2.13;;;0.20;;
48871;SDS011;36154;51.674;7.824;2023-02-28T06:57:31;1.40;;;0.20;;
48871;SDS011;36154;51.674;7.824;2023-02-28T06:59:58;0.20;;;0.20;;
48871;SDS011;36154;51.674;7.824;2023-02-28T07:02:24;0.47;;;0.30;;
48871;SDS011;36154;51.674;7.824;2023-02-28T07:04:50;1.50;;;0.38;;
48871;SDS011;36154;51.674;7.824;2023-02-28T07:07:15;0.43;;;0.20;;
48871;SDS011;36154;51.674;7.824;2023-02-28T07:09:40;1.65;;;0.50;;
48871;SDS011;36154;51.674;7.824;2023-02-28T07:12:05;1.35;;;0.40;;
48871;SDS011;36154;51.674;7.824;2023-02-28T07:14:31;0.38;;;0.13;;
48871;SDS011;36154;51.674;7.824;2023-02-28T07:16:56;0.57;;;0.20;;
48871;SDS011;36154;51.674;7.824;2023-02-28T07:19:22;0.30;;;0.30;;
48871;SDS011;36154;51.674;7.824;2023-02-28T07:21:47;0.20;;;0.20;;
48871;SDS011;36154;51.674;7.824;2023-02-28T07:24:12;0.28;;;0.20;;
48871;SDS011;36154;51.674;7.824;2023-02-28T07:26:42;0.22;;;0.22;;
48871;SDS011;36154;51.674;7.824;2023-02-28T07:29:08;0.25;;;0.20;;
48871;SDS011;36154;51.674;7.824;2023-02-28T07:31:35;0.77;;;0.30;;
48871;SDS011;36154;51.674;7.824;2023-02-28T07:34:01;0.85;;;0.30;;
48871;SDS011;36154;51.674;7.824;2023-02-28T07:36:27;1.48;;;0.20;;
48871;SDS011;36154;51.674;7.824;2023-02-28T07:38:53;1.10;;;0.30;;
48871;SDS011;36154;51.674;7.824;2023-02-28T07:41:19;0.22;;;0.22;;
48871;SDS011;36154;51.674;7.824;2023-02-28T07:43:46;1.60;;;0.45;;
48871;SDS011;36154;51.674;7.824;2023-02-28T07:46:12;0.22;;;0.22;;
48871;SDS011;36154;51.674;7.824;2023-02-28T07:48:40;0.38;;;0.20;;
48871;SDS011;36154;51.674;7.824;2023-02-28T07:51:06;1.48;;;0.30;;
48871;SDS011;36154;51.674;7.824;2023-02-28T07:53:31;0.20;;;0.20;;
48871;SDS011;36154;51.674;7.824;2023-02-28T07:55:57;0.30;;;0.30;;
48871;SDS011;36154;51.674;7.824;2023-02-28T07:58:23;1.60;;;0.20;;
48871;SDS011;36154;51.674;7.824;2023-02-28T08:00:50;0.40;;;0.32;;
48871;SDS011;36154;51.674;7.824;2023-02-28T08:03:16;0.30;;;0.30;;
48871;SDS011;36154;51.674;7.824;2023-02-28T08:05:43;0.32;;;0.30;;
48871;SDS011;36154;51.674;7.824;2023-02-28T08:08:08;0.38;;;0.38;;
48871;SDS011;36154;51.674;7.824;2023-02-28T08:10:33;0.38;;;0.38;;
48871;SDS011;36154;51.674;7.824;2023-02-28T08:12:59;7.82;;;0.52;;
48871;SDS011;36154;51.674;7.824;2023-02-28T08:15:25;0.30;;;0.28;;
48871;SDS011;36154;51.674;7.824;2023-02-28T08:17:51;0.47;;;0.30;;
48871;SDS011;36154;51.674;7.824;2023-02-28T08:20:16;2.10;;;0.70;;
48871;SDS011;36154;51.674;7.824;2023-02-28T08:22:41;6.57;;;2.05;;
48871;SDS011;36154;51.674;7.824;2023-02-28T08:25:07;8.77;;;2.50;;
48871;SDS011;36154;51.674;7.824;2023-02-28T08:27:33;9.55;;;2.55;;
48871;SDS011;36154;51.674;7.824;2023-02-28T08:29:58;8.93;;;2.67;;
48871;SDS011;36154;51.674;7.824;2023-02-28T08:32:24;8.77;;;2.97;;
48871;SDS011;36154;51.674;7.824;2023-02-28T08:34:49;9.65;;;2.70;;
48871;SDS011;36154;51.674;7.824;2023-02-28T08:37:14;14.48;;;3.03;;
48871;SDS011;36154;51.674;7.824;2023-02-28T08:39:40;7.55;;;2.85;;
48871;SDS011;36154;51.674;7.824;2023-02-28T08:42:05;7.57;;;2.45;;
48871;SDS011;36154;51.674;7.824;2023-02-28T08:44:30;9.45;;;2.70;;
48871;SDS011;36154;51.674;7.824;2023-02-28T08:46:56;6.97;;;2.33;;
48871;SDS011;36154;51.674;7.824;2023-02-28T08:49:21;7.22;;;2.15;;
48871;SDS011;36154;51.674;7.824;2023-02-28T08:51:46;8.00;;;2.33;;
48871;SDS011;36154;51.674;7.824;2023-02-28T08:54:11;8.32;;;2.20;;
48871;SDS011;36154;51.674;7.824;2023-02-28T08:56:38;10.15;;;2.53;;
48871;SDS011;36154;51.674;7.824;2023-02-28T08:59:05;11.40;;;2.40;;
48871;SDS011;36154;51.674;7.824;2023-02-28T09:01:33;3.78;;;1.80;;
48871;SDS011;36154;51.674;7.824;2023-02-28T09:03:58;4.75;;;2.03;;
48871;SDS011;36154;51.674;7.824;2023-02-28T09:06:25;5.13;;;1.83;;
48871;SDS011;36154;51.674;7.824;2023-02-28T09:08:51;5.68;;;2.03;;
48871;SDS011;36154;51.674;7.824;2023-02-28T09:11:17;7.28;;;1.90;;
48871;SDS011;36154;51.674;7.824;2023-02-28T09:13:44;5.65;;;2.00;;
48871;SDS011;36154;51.674;7.824;2023-02-28T09:16:10;6.50;;;2.28;;
48871;SDS011;36154;51.674;7.824;2023-02-28T09:18:37;3.78;;;1.60;;
48871;SDS011;36154;51.674;7.824;2023-02-28T09:21:07;3.55;;;1.60;;
48871;SDS011;36154;51.674;7.824;2023-02-28T09:23:34;2.83;;;1.40;;
48871;SDS011;36154;51.674;7.824;2023-02-28T09:26:00;6.43;;;1.90;;
48871;SDS011;36154;51.674;7.824;2023-02-28T09:28:25;4.65;;;1.90;;
48871;SDS011;36154;51.674;7.824;2023-02-28T09:30:52;3.80;;;1.40;;
48871;SDS011;36154;51.674;7.824;2023-02-28T09:33:18;4.10;;;1.58;;
48871;SDS011;36154;51.674;7.824;2023-02-28T09:35:48;4.88;;;1.98;;
48871;SDS011;36154;51.674;7.824;2023-02-28T09:38:14;4.60;;;1.60;;
48871;SDS011;36154;51.674;7.824;2023-02-28T09:41:00;7.53;;;2.30;;
48871;SDS011;36154;51.674;7.824;2023-02-28T09:43:47;87.32;;;9.32;;
48871;SDS011;36154;51.674;7.824;2023-02-28T09:46:32;26.80;;;4.78;;
48871;SDS011;36154;51.674;7.824;2023-02-28T09:49:04;18.52;;;4.10;;
48871;SDS011;36154;51.674;7.824;2023-02-28T09:51:50;22.33;;;4.15;;
48871;SDS011;36154;51.674;7.824;2023-02-28T09:54:24;15.10;;;3.60;;
48871;SDS011;36154;51.674;7.824;2023-02-28T10:05:51;10.90;;;3.50;;
48871;SDS011;36154;51.674;7.824;2023-02-28T10:08:21;9.13;;;2.83;;
48871;SDS011;36154;51.674;7.824;2023-02-28T10:10:58;13.48;;;3.30;;
48871;SDS011;36154;51.674;7.824;2023-02-28T10:15:58;17.02;;;3.13;;
48871;SDS011;36154;51.674;7.824;2023-02-28T10:21:14;11.30;;;2.20;;
48871;SDS011;36154;51.674;7.824;2023-02-28T10:24:36;8.05;;;2.83;;
48871;SDS011;36154;51.674;7.824;2023-02-28T10:27:18;13.05;;;2.72;;
48871;SDS011;36154;51.674;7.824;2023-02-28T10:29:46;5.93;;;2.20;;
48871;SDS011;36154;51.674;7.824;2023-02-28T10:32:19;6.35;;;1.90;;
48871;SDS011;36154;51.674;7.824;2023-02-28T10:35:33;9.65;;;2.17;;
48871;SDS011;36154;51.674;7.824;2023-02-28T10:37:40;5.53;;;1.90;;
48871;SDS011;36154;51.674;7.824;2023-02-28T10:40:06;7.85;;;1.80;;
48871;SDS011;36154;51.674;7.824;2023-02-28T10:43:03;3.33;;;1.85;;
48871;SDS011;36154;51.674;7.824;2023-02-28T10:45:57;15.93;;;2.50;;
48871;SDS011;36154;51.674;7.824;2023-02-28T10:49:01;16.52;;;2.92;;
48871;SDS011;36154;51.674;7.824;2023-02-28T10:51:38;21.80;;;4.63;;
48871;SDS011;36154;51.674;7.824;2023-02-28T10:54:04;23.77;;;4.95;;
48871;SDS011;36154;51.674;7.824;2023-02-28T10:56:31;20.63;;;4.10;;
48871;SDS011;36154;51.674;7.824;2023-02-28T11:01:24;20.10;;;4.22;;
48871;SDS011;36154;51.674;7.824;2023-02-28T11:04:00;10.73;;;3.85;;
48871;SDS011;36154;51.674;7.824;2023-02-28T11:06:26;13.88;;;3.20;;
48871;SDS011;36154;51.674;7.824;2023-02-28T11:08:57;12.40;;;3.63;;
48871;SDS011;36154;51.674;7.824;2023-02-28T11:11:25;11.05;;;2.90;;
48871;SDS011;36154;51.674;7.824;2023-02-28T11:13:53;11.93;;;2.50;;
48871;SDS011;36154;51.674;7.824;2023-02-28T11:16:21;7.00;;;2.35;;
48871;SDS011;36154;51.674;7.824;2023-02-28T11:18:50;4.72;;;1.77;;
48871;SDS011;36154;51.674;7.824;2023-02-28T11:21:23;4.15;;;1.60;;
48871;SDS011;36154;51.674;7.824;2023-02-28T11:26:41;2.78;;;0.90;;
48871;SDS011;36154;51.674;7.824;2023-02-28T11:29:10;3.53;;;1.20;;
48871;SDS011;36154;51.674;7.824;2023-02-28T11:34:33;1.15;;;0.80;;
48871;SDS011;36154;51.674;7.824;2023-02-28T11:37:00;3.72;;;0.85;;
48871;SDS011;36154;51.674;7.824;2023-02-28T11:39:29;1.88;;;0.65;;
48871;SDS011;36154;51.674;7.824;2023-02-28T11:42:02;0.67;;;0.50;;
48871;SDS011;36154;51.674;7.824;2023-02-28T11:47:27;2.42;;;0.73;;
48871;SDS011;36154;51.674;7.824;2023-02-28T11:50:20;0.88;;;0.50;;
48871;SDS011;36154;51.674;7.824;2023-02-28T11:55:36;1.15;;;0.68;;
48871;SDS011;36154;51.674;7.824;2023-02-28T12:01:26;1.10;;;0.40;;
48871;SDS011;36154;51.674;7.824;2023-02-28T12:04:19;0.98;;;0.40;;
48871;SDS011;36154;51.674;7.824;2023-02-28T12:12:49;0.68;;;0.45;;
48871;SDS011;36154;51.674;7.824;2023-02-28T12:26:39;0.30;;;0.30;;
48871;SDS011;36154;51.674;7.824;2023-02-28T12:29:12;0.85;;;0.40;;
48871;SDS011;36154;51.674;7.824;2023-02-28T12:31:40;0.28;;;0.28;;
48871;SDS011;36154;51.674;7.824;2023-02-28T12:34:15;1.23;;;0.68;;
48871;SDS011;36154;51.674;7.824;2023-02-28T12:36:48;0.68;;;0.47;;
48871;SDS011;36154;51.674;7.824;2023-02-28T12:39:18;1.38;;;0.68;;
48871;SDS011;36154;51.674;7.824;2023-02-28T12:42:01;1.27;;;0.85;;
48871;SDS011;36154;51.674;7.824;2023-02-28T12:44:38;1.77;;;1.17;;
48871;SDS011;36154;51.674;7.824;2023-02-28T12:47:11;4.75;;;0.60;;
48871;SDS011;36154;51.674;7.824;2023-02-28T12:52:11;2.78;;;0.70;;
48871;SDS011;36154;51.674;7.824;2023-02-28T12:54:46;4.22;;;0.73;;
48871;SDS011;36154;51.674;7.824;2023-02-28T12:57:27;1.92;;;0.88;;
48871;SDS011;36154;51.674;7.824;2023-02-28T13:00:16;3.80;;;0.63;;
48871;SDS011;36154;51.674;7.824;2023-02-28T13:08:27;1.45;;;0.50;;
48871;SDS011;36154;51.674;7.824;2023-02-28T13:14:05;0.65;;;0.52;;
48871;SDS011;36154;51.674;7.824;2023-02-28T13:16:48;2.17;;;0.85;;
48871;SDS011;36154;51.674;7.824;2023-02-28T13:24:46;2.15;;;0.68;;
48871;SDS011;36154;51.674;7.824;2023-02-28T13:29:39;0.50;;;0.50;;
48871;SDS011;36154;51.674;7.824;2023-02-28T13:35:34;0.60;;;0.60;;
48871;SDS011;36154;51.674;7.824;2023-02-28T13:39:53;2.08;;;0.90;;
48871;SDS011;36154;51.674;7.824;2023-02-28T13:47:36;2.88;;;0.50;;
48871;SDS011;36154;51.674;7.824;2023-02-28T13:50:15;0.40;;;0.28;;
48871;SDS011;36154;51.674;7.824;2023-02-28T13:52:45;0.45;;;0.40;;
48871;SDS011;36154;51.674;7.824;2023-02-28T13:55:22;0.52;;;0.40;;
48871;SDS011;36154;51.674;7.824;2023-02-28T14:03:33;0.47;;;0.22;;
48871;SDS011;36154;51.674;7.824;2023-02-28T14:06:08;0.75;;;0.30;;
48871;SDS011;36154;51.674;7.824;2023-02-28T14:11:37;0.30;;;0.30;;
48871;SDS011;36154;51.674;7.824;2023-02-28T14:14:07;0.10;;;0.10;;
48871;SDS011;36154;51.674;7.824;2023-02-28T14:16:40;0.22;;;0.20;;
48871;SDS011;36154;51.674;7.824;2023-02-28T14:19:13;0.40;;;0.10;;
48871;SDS011;36154;51.674;7.824;2023-02-28T14:21:49;0.30;;;0.30;;
48871;SDS011;36154;51.674;7.824;2023-02-28T14:35:46;0.65;;;0.28;;
48871;SDS011;36154;51.674;7.824;2023-02-28T14:39:10;0.20;;;0.20;;
48871;SDS011;36154;51.674;7.824;2023-02-28T14:41:22;0.73;;;0.50;;
48871;SDS011;36154;51.674;7.824;2023-02-28T14:44:03;3.00;;;0.50;;
48871;SDS011;36154;51.674;7.824;2023-02-28T14:46:43;1.63;;;0.68;;
48871;SDS011;36154;51.674;7.824;2023-02-28T14:49:15;0.30;;;0.30;;
48871;SDS011;36154;51.674;7.824;2023-02-28T14:51:43;7.43;;;0.50;;
48871;SDS011;36154;51.674;7.824;2023-02-28T14:54:12;3.38;;;0.45;;
48871;SDS011;36154;51.674;7.824;2023-02-28T14:56:40;0.77;;;0.50;;
48871;SDS011;36154;51.674;7.824;2023-02-28T14:59:21;0.40;;;0.40;;
48871;SDS011;36154;51.674;7.824;2023-02-28T15:04:59;0.50;;;0.50;;
48871;SDS011;36154;51.674;7.824;2023-02-28T15:07:26;3.40;;;0.47;;
48871;SDS011;36154;51.674;7.824;2023-02-28T15:10:13;0.50;;;0.50;;
48871;SDS011;36154;51.674;7.824;2023-02-28T15:12:44;1.50;;;0.40;;
48871;SDS011;36154;51.674;7.824;2023-02-28T15:15:16;0.70;;;0.52;;
48871;SDS011;36154;51.674;7.824;2023-02-28T15:17:45;1.75;;;0.60;;
48871;SDS011;36154;51.674;7.824;2023-02-28T15:20:14;0.45;;;0.40;;
48871;SDS011;36154;51.674;7.824;2023-02-28T15:22:41;0.50;;;0.43;;
48871;SDS011;36154;51.674;7.824;2023-02-28T15:25:09;2.40;;;0.60;;
48871;SDS011;36154;51.674;7.824;2023-02-28T15:27:40;0.88;;;0.50;;
48871;SDS011;36154;51.674;7.824;2023-02-28T15:30:18;0.60;;;0.60;;
48871;SDS011;36154;51.674;7.824;2023-02-28T15:32:46;0.85;;;0.40;;
48871;SDS011;36154;51.674;7.824;2023-02-28T15:35:29;0.40;;;0.40;;
48871;SDS011;36154;51.674;7.824;2023-02-28T15:38:05;1.42;;;0.45;;
48871;SDS011;36154;51.674;7.824;2023-02-28T15:48:59;0.50;;;0.50;;
48871;SDS011;36154;51.674;7.824;2023-02-28T15:54:08;0.55;;;0.40;;
48871;SDS011;36154;51.674;7.824;2023-02-28T15:56:43;0.52;;;0.50;;
48871;SDS011;36154;51.674;7.824;2023-02-28T15:59:15;0.40;;;0.40;;
48871;SDS011;36154;51.674;7.824;2023-02-28T16:01:44;0.55;;;0.47;;
48871;SDS011;36154;51.674;7.824;2023-02-28T16:04:17;0.98;;;0.40;;
48871;SDS011;36154;51.674;7.824;2023-02-28T16:06:44;0.55;;;0.55;;
48871;SDS011;36154;51.674;7.824;2023-02-28T16:09:14;0.47;;;0.30;;
48871;SDS011;36154;51.674;7.824;2023-02-28T16:11:41;0.45;;;0.45;;
48871;SDS011;36154;51.674;7.824;2023-02-28T16:14:17;0.68;;;0.38;;
48871;SDS011;36154;51.674;7.824;2023-02-28T16:16:49;1.80;;;0.40;;
48871;SDS011;36154;51.674;7.824;2023-02-28T16:19:16;0.40;;;0.40;;
48871;SDS011;36154;51.674;7.824;2023-02-28T16:21:42;0.43;;;0.43;;
48871;SDS011;36154;51.674;7.824;2023-02-28T16:24:08;0.40;;;0.40;;
48871;SDS011;36154;51.674;7.824;2023-02-28T16:26:33;0.20;;;0.20;;
48871;SDS011;36154;51.674;7.824;2023-02-28T16:29:00;0.40;;;0.40;;
48871;SDS011;36154;51.674;7.824;2023-02-28T16:31:27;0.40;;;0.40;;
48871;SDS011;36154;51.674;7.824;2023-02-28T16:33:52;0.40;;;0.40;;
48871;SDS011;36154;51.674;7.824;2023-02-28T16:36:20;0.30;;;0.30;;
48871;SDS011;36154;51.674;7.824;2023-02-28T16:38:50;1.30;;;0.60;;
48871;SDS011;36154;51.674;7.824;2023-02-28T16:41:19;0.40;;;0.40;;
48871;SDS011;36154;51.674;7.824;2023-02-28T16:43:47;0.88;;;0.57;;
48871;SDS011;36154;51.674;7.824;2023-02-28T16:46:15;0.30;;;0.30;;
48871;SDS011;36154;51.674;7.824;2023-02-28T16:48:41;1.10;;;0.40;;
48871;SDS011;36154;51.674;7.824;2023-02-28T16:51:14;0.40;;;0.40;;
48871;SDS011;36154;51.674;7.824;2023-02-28T16:53:40;0.75;;;0.57;;
48871;SDS011;36154;51.674;7.824;2023-02-28T16:56:06;0.50;;;0.50;;
48871;SDS011;36154;51.674;7.824;2023-02-28T16:58:40;0.57;;;0.20;;
48871;SDS011;36154;51.674;7.824;2023-02-28T17:01:06;0.52;;;0.32;;
48871;SDS011;36154;51.674;7.824;2023-02-28T17:03:31;0.75;;;0.40;;
48871;SDS011;36154;51.674;7.824;2023-02-28T17:05:56;0.60;;;0.50;;
48871;SDS011;36154;51.674;7.824;2023-02-28T17:08:22;0.68;;;0.47;;
48871;SDS011;36154;51.674;7.824;2023-02-28T17:10:47;0.43;;;0.40;;
48871;SDS011;36154;51.674;7.824;2023-02-28T17:13:12;0.30;;;0.30;;
48871;SDS011;36154;51.674;7.824;2023-02-28T17:15:37;0.32;;;0.32;;
48871;SDS011;36154;51.674;7.824;2023-02-28T17:18:03;0.50;;;0.50;;
48871;SDS011;36154;51.674;7.824;2023-02-28T17:20:30;0.75;;;0.40;;
48871;SDS011;36154;51.674;7.824;2023-02-28T17:22:55;0.40;;;0.30;;
48871;SDS011;36154;51.674;7.824;2023-02-28T17:25:21;0.50;;;0.50;;
48871;SDS011;36154;51.674;7.824;2023-02-28T17:27:48;1.77;;;0.40;;